sensor_id;sensor_type;location;lat;lon;timestamp;P1;P4;P2;P0;N10;N4;N25;N1;N05;TS
84586;SPS30;74809;48.198;16.302;2024-02-23T00:06:14;9.9;;9.9;9.5;;;;;;
84586;SPS30;74809;48.198;16.302;2024-02-23T00:11:15;10.8;;10.8;10.3;;;;;;
84586;SPS30;74809;48.198;16.302;2024-02-23T00:16:15;9.9;;9.9;9.4;;;;;;
84586;SPS30;74809;48.198;16.302;2024-02-23T00:21:15;10.9;;11.4;10.0;;;;;;
84586;SPS30;74809;48.198;16.302;2024-02-23T00:26:15;10.5;;10.5;10.0;;;;;;
84586;SPS30;74809;48.198;16.302;2024-02-23T00:31:15;10.2;;10.2;9.7;;;;;;
84586;SPS30;74809;48.198;16.302;2024-02-23T00:36:15;9.2;;9.2;8.8;;;;;;
84586;SPS30;74809;48.198;16.302;2024-02-23T00:41:15;10.7;;10.7;10.2;;;;;;
84586;SPS30;74809;48.198;16.302;2024-02-23T00:46:15;11.0;;11.0;10.5;;;;;;
84586;SPS30;74809;48.198;16.302;2024-02-23T00:51:19;10.0;;10.0;9.5;;;;;;
84586;SPS30;74809;48.198;16.302;2024-02-23T00:56:15;11.1;;11.2;10.4;;;;;;
84586;SPS30;74809;48.198;16.302;2024-02-23T01:01:15;9.9;;10.0;9.5;;;;;;
84586;SPS30;74809;48.198;16.302;2024-02-23T01:06:16;10.5;;10.5;10.0;;;;;;
84586;SPS30;74809;48.198;16.302;2024-02-23T01:51:15;14.1;;14.2;13.3;;;;;;
84586;SPS30;74809;48.198;16.302;2024-02-23T01:56:15;13.5;;13.8;12.6;;;;;;
84586;SPS30;74809;48.198;16.302;2024-02-23T02:01:15;13.1;;13.4;12.2;;;;;;
84586;SPS30;74809;48.198;16.302;2024-02-23T02:06:15;11.0;;11.4;10.3;;;;;;
84586;SPS30;74809;48.198;16.302;2024-02-23T02:11:15;12.0;;12.0;11.4;;;;;;
84586;SPS30;74809;48.198;16.302;2024-02-23T02:16:15;10.7;;10.7;10.2;;;;;;
84586;SPS30;74809;48.198;16.302;2024-02-23T02:21:15;13.4;;13.4;12.7;;;;;;
84586;SPS30;74809;48.198;16.302;2024-02-23T02:41:15;10.2;;10.5;9.4;;;;;;
84586;SPS30;74809;48.198;16.302;2024-02-23T02:46:15;10.0;;10.0;9.5;;;;;;
84586;SPS30;74809;48.198;16.302;2024-02-23T03:26:15;10.6;;10.6;10.1;;;;;;
84586;SPS30;74809;48.198;16.302;2024-02-23T03:31:15;10.0;;10.0;9.6;;;;;;
84586;SPS30;74809;48.198;16.302;2024-02-23T03:36:15;10.1;;10.1;9.6;;;;;;
84586;SPS30;74809;48.198;16.302;2024-02-23T03:41:15;9.2;;9.2;8.8;;;;;;
84586;SPS30;74809;48.198;16.302;2024-02-23T03:46:15;7.5;;7.5;7.2;;;;;;
84586;SPS30;74809;48.198;16.302;2024-02-23T03:51:15;7.8;;7.8;7.5;;;;;;
84586;SPS30;74809;48.198;16.302;2024-02-23T04:16:16;18.8;;18.8;18.0;;;;;;
84586;SPS30;74809;48.198;16.302;2024-02-23T04:21:15;17.7;;17.7;16.9;;;;;;
84586;SPS30;74809;48.198;16.302;2024-02-23T04:56:14;4.3;;4.3;4.1;;;;;;
84586;SPS30;74809;48.198;16.302;2024-02-23T05:01:15;3.5;;3.5;3.3;;;;;;
84586;SPS30;74809;48.198;16.302;2024-02-23T05:06:15;2.5;;2.5;2.4;;;;;;
84586;SPS30;74809;48.198;16.302;2024-02-23T05:11:15;2.4;;2.4;2.2;;;;;;
84586;SPS30;74809;48.198;16.302;2024-02-23T05:46:15;1.2;;1.2;1.2;;;;;;
84586;SPS30;74809;48.198;16.302;2024-02-23T05:51:15;1.8;;1.8;1.7;;;;;;
84586;SPS30;74809;48.198;16.302;2024-02-23T05:56:15;1.5;;1.5;1.4;;;;;;
84586;SPS30;74809;48.198;16.302;2024-02-23T06:01:15;1.1;;1.1;1.1;;;;;;
84586;SPS30;74809;48.198;16.302;2024-02-23T06:06:15;1.5;;1.5;1.5;;;;;;
84586;SPS30;74809;48.198;16.302;2024-02-23T06:31:14;1.1;;1.1;1.1;;;;;;
84586;SPS30;74809;48.198;16.302;2024-02-23T06:36:15;1.1;;1.1;1.0;;;;;;
84586;SPS30;74809;48.198;16.302;2024-02-23T06:41:15;1.0;;1.0;1.0;;;;;;
84586;SPS30;74809;48.198;16.302;2024-02-23T06:46:15;0.7;;0.7;0.6;;;;;;
84586;SPS30;74809;48.198;16.302;2024-02-23T07:21:17;1.4;;1.4;1.3;;;;;;
84586;SPS30;74809;48.198;16.302;2024-02-23T07:26:15;3.4;;3.4;3.3;;;;;;
84586;SPS30;74809;48.198;16.302;2024-02-23T07:31:15;1.6;;1.6;1.5;;;;;;
84586;SPS30;74809;48.198;16.302;2024-02-23T07:36:15;2.1;;2.2;2.0;;;;;;
84586;SPS30;74809;48.198;16.302;2024-02-23T07:41:15;1.7;;1.8;1.6;;;;;;
84586;SPS30;74809;48.198;16.302;2024-02-23T07:46:15;1.6;;1.6;1.4;;;;;;
84586;SPS30;74809;48.198;16.302;2024-02-23T07:51:15;1.3;;1.3;1.2;;;;;;
84586;SPS30;74809;48.198;16.302;2024-02-23T07:56:15;2.8;;2.8;2.6;;;;;;
84586;SPS30;74809;48.198;16.302;2024-02-23T08:01:15;1.4;;1.4;1.3;;;;;;
84586;SPS30;74809;48.198;16.302;2024-02-23T08:06:15;1.0;;1.0;0.9;;;;;;
84586;SPS30;74809;48.198;16.302;2024-02-23T08:11:15;1.2;;1.2;1.1;;;;;;
84586;SPS30;74809;48.198;16.302;2024-02-23T08:16:18;2.6;;2.7;2.4;;;;;;
84586;SPS30;74809;48.198;16.302;2024-02-23T08:21:15;2.1;;2.2;2.0;;;;;;
84586;SPS30;74809;48.198;16.302;2024-02-23T08:26:15;1.6;;1.6;1.5;;;;;;
84586;SPS30;74809;48.198;16.302;2024-02-23T08:31:15;2.6;;2.6;2.4;;;;;;
84586;SPS30;74809;48.198;16.302;2024-02-23T08:36:15;2.1;;2.2;2.0;;;;;;
84586;SPS30;74809;48.198;16.302;2024-02-23T08:41:15;2.7;;2.8;2.6;;;;;;
84586;SPS30;74809;48.198;16.302;2024-02-23T08:46:15;3.3;;3.4;3.1;;;;;;
84586;SPS30;74809;48.198;16.302;2024-02-23T08:51:15;1.8;;1.9;1.7;;;;;;
84586;SPS30;74809;48.198;16.302;2024-02-23T08:56:15;1.8;;1.8;1.7;;;;;;
84586;SPS30;74809;48.198;16.302;2024-02-23T09:01:15;2.2;;2.2;2.0;;;;;;
84586;SPS30;74809;48.198;16.302;2024-02-23T09:16:15;1.5;;1.5;1.4;;;;;;
84586;SPS30;74809;48.198;16.302;2024-02-23T09:21:15;1.9;;1.9;1.8;;;;;;
84586;SPS30;74809;48.198;16.302;2024-02-23T09:26:15;1.7;;1.7;1.6;;;;;;
84586;SPS30;74809;48.198;16.302;2024-02-23T10:01:16;2.3;;2.3;2.2;;;;;;
84586;SPS30;74809;48.198;16.302;2024-02-23T10:06:15;2.4;;2.4;2.3;;;;;;
84586;SPS30;74809;48.198;16.302;2024-02-23T10:11:18;2.4;;2.4;2.3;;;;;;
84586;SPS30;74809;48.198;16.302;2024-02-23T10:16:15;1.7;;1.7;1.6;;;;;;
84586;SPS30;74809;48.198;16.302;2024-02-23T10:21:15;1.8;;1.8;1.7;;;;;;
84586;SPS30;74809;48.198;16.302;2024-02-23T10:46:15;1.2;;1.2;1.2;;;;;;
84586;SPS30;74809;48.198;16.302;2024-02-23T10:51:15;0.7;;0.7;0.7;;;;;;
84586;SPS30;74809;48.198;16.302;2024-02-23T10:56:15;0.9;;0.9;0.8;;;;;;
84586;SPS30;74809;48.198;16.302;2024-02-23T11:31:15;1.5;;1.5;1.4;;;;;;
84586;SPS30;74809;48.198;16.302;2024-02-23T11:36:21;1.3;;1.4;1.3;;;;;;
84586;SPS30;74809;48.198;16.302;2024-02-23T11:41:15;1.2;;1.2;1.1;;;;;;
84586;SPS30;74809;48.198;16.302;2024-02-23T11:46:15;2.0;;2.0;1.9;;;;;;
84586;SPS30;74809;48.198;16.302;2024-02-23T11:51:15;2.0;;2.0;1.9;;;;;;
84586;SPS30;74809;48.198;16.302;2024-02-23T12:16:15;1.9;;1.9;1.8;;;;;;
84586;SPS30;74809;48.198;16.302;2024-02-23T12:21:15;2.2;;2.2;2.1;;;;;;
84586;SPS30;74809;48.198;16.302;2024-02-23T12:26:16;2.4;;2.4;2.3;;;;;;
84586;SPS30;74809;48.198;16.302;2024-02-23T13:01:15;3.6;;3.7;3.3;;;;;;
84586;SPS30;74809;48.198;16.302;2024-02-23T13:06:15;2.9;;3.0;2.7;;;;;;
84586;SPS30;74809;48.198;16.302;2024-02-23T13:11:15;2.7;;2.7;2.6;;;;;;
84586;SPS30;74809;48.198;16.302;2024-02-23T13:16:15;3.3;;3.3;3.1;;;;;;
84586;SPS30;74809;48.198;16.302;2024-02-23T13:21:15;3.0;;3.0;2.8;;;;;;
84586;SPS30;74809;48.198;16.302;2024-02-23T13:26:15;2.9;;2.9;2.8;;;;;;
84586;SPS30;74809;48.198;16.302;2024-02-23T13:31:15;3.7;;3.7;3.5;;;;;;
84586;SPS30;74809;48.198;16.302;2024-02-23T13:56:15;3.9;;3.9;3.7;;;;;;
84586;SPS30;74809;48.198;16.302;2024-02-23T14:01:15;3.7;;3.7;3.5;;;;;;
84586;SPS30;74809;48.198;16.302;2024-02-23T14:41:15;3.7;;3.7;3.5;;;;;;
84586;SPS30;74809;48.198;16.302;2024-02-23T14:46:15;4.0;;4.0;3.8;;;;;;
84586;SPS30;74809;48.198;16.302;2024-02-23T14:51:15;4.2;;4.2;4.0;;;;;;
84586;SPS30;74809;48.198;16.302;2024-02-23T14:56:15;4.5;;4.5;4.3;;;;;;
84586;SPS30;74809;48.198;16.302;2024-02-23T15:01:16;5.5;;5.6;5.3;;;;;;
84586;SPS30;74809;48.198;16.302;2024-02-23T15:06:15;4.4;;4.4;4.2;;;;;;
84586;SPS30;74809;48.198;16.302;2024-02-23T15:11:15;5.1;;5.1;4.9;;;;;;
84586;SPS30;74809;48.198;16.302;2024-02-23T15:16:15;6.1;;6.1;5.8;;;;;;
84586;SPS30;74809;48.198;16.302;2024-02-23T15:21:15;5.2;;5.2;4.9;;;;;;
84586;SPS30;74809;48.198;16.302;2024-02-23T15:26:15;5.2;;5.2;4.9;;;;;;
84586;SPS30;74809;48.198;16.302;2024-02-23T15:31:15;5.5;;5.5;5.2;;;;;;
84586;SPS30;74809;48.198;16.302;2024-02-23T15:36:15;6.3;;6.3;6.1;;;;;;
84586;SPS30;74809;48.198;16.302;2024-02-23T15:41:15;5.9;;5.9;5.6;;;;;;
84586;SPS30;74809;48.198;16.302;2024-02-23T15:46:15;6.2;;6.2;5.9;;;;;;
84586;SPS30;74809;48.198;16.302;2024-02-23T15:51:15;6.5;;6.5;6.2;;;;;;
84586;SPS30;74809;48.198;16.302;2024-02-23T16:21:15;7.3;;7.3;6.9;;;;;;
84586;SPS30;74809;48.198;16.302;2024-02-23T16:26:15;6.3;;6.3;6.0;;;;;;
84586;SPS30;74809;48.198;16.302;2024-02-23T16:31:15;6.6;;6.6;6.3;;;;;;
84586;SPS30;74809;48.198;16.302;2024-02-23T16:36:15;6.8;;6.8;6.5;;;;;;
84586;SPS30;74809;48.198;16.302;2024-02-23T16:41:15;7.2;;7.2;6.9;;;;;;
84586;SPS30;74809;48.198;16.302;2024-02-23T16:46:15;6.3;;6.3;6.0;;;;;;
84586;SPS30;74809;48.198;16.302;2024-02-23T16:51:15;6.1;;6.1;5.8;;;;;;
84586;SPS30;74809;48.198;16.302;2024-02-23T16:56:15;7.9;;7.9;7.5;;;;;;
84586;SPS30;74809;48.198;16.302;2024-02-23T17:01:15;7.4;;7.6;7.0;;;;;;
84586;SPS30;74809;48.198;16.302;2024-02-23T17:06:15;6.7;;6.7;6.4;;;;;;
84586;SPS30;74809;48.198;16.302;2024-02-23T17:21:15;9.6;;9.7;9.1;;;;;;
84586;SPS30;74809;48.198;16.302;2024-02-23T17:26:15;11.2;;11.4;10.6;;;;;;
84586;SPS30;74809;48.198;16.302;2024-02-23T18:01:16;10.9;;11.0;10.4;;;;;;
84586;SPS30;74809;48.198;16.302;2024-02-23T18:06:15;11.1;;11.1;10.5;;;;;;
84586;SPS30;74809;48.198;16.302;2024-02-23T18:11:15;9.6;;9.7;9.0;;;;;;
84586;SPS30;74809;48.198;16.302;2024-02-23T18:16:15;8.4;;8.4;8.0;;;;;;
84586;SPS30;74809;48.198;16.302;2024-02-23T18:21:15;11.0;;11.1;10.3;;;;;;
84586;SPS30;74809;48.198;16.302;2024-02-23T18:26:15;9.0;;9.0;8.6;;;;;;
84586;SPS30;74809;48.198;16.302;2024-02-23T18:31:16;9.9;;9.9;9.4;;;;;;
84586;SPS30;74809;48.198;16.302;2024-02-23T18:56:15;3.3;;3.4;3.1;;;;;;
84586;SPS30;74809;48.198;16.302;2024-02-23T19:01:15;3.0;;3.0;2.9;;;;;;
84586;SPS30;74809;48.198;16.302;2024-02-23T19:41:16;2.8;;2.8;2.7;;;;;;
84586;SPS30;74809;48.198;16.302;2024-02-23T19:46:15;1.8;;1.8;1.7;;;;;;
84586;SPS30;74809;48.198;16.302;2024-02-23T19:51:15;1.8;;1.8;1.7;;;;;;
84586;SPS30;74809;48.198;16.302;2024-02-23T19:56:15;3.2;;3.2;3.0;;;;;;
84586;SPS30;74809;48.198;16.302;2024-02-23T20:01:15;2.2;;2.2;2.1;;;;;;
84586;SPS30;74809;48.198;16.302;2024-02-23T20:06:15;1.7;;1.7;1.7;;;;;;
84586;SPS30;74809;48.198;16.302;2024-02-23T20:11:15;1.7;;1.7;1.6;;;;;;
84586;SPS30;74809;48.198;16.302;2024-02-23T20:16:15;2.2;;2.2;2.0;;;;;;
84586;SPS30;74809;48.198;16.302;2024-02-23T20:21:15;3.1;;3.1;2.9;;;;;;
84586;SPS30;74809;48.198;16.302;2024-02-23T21:16:15;1.6;;1.7;1.5;;;;;;
84586;SPS30;74809;48.198;16.302;2024-02-23T21:21:16;1.6;;1.7;1.5;;;;;;
84586;SPS30;74809;48.198;16.302;2024-02-23T21:26:15;1.8;;1.9;1.6;;;;;;
84586;SPS30;74809;48.198;16.302;2024-02-23T21:31:15;1.6;;1.6;1.5;;;;;;
84586;SPS30;74809;48.198;16.302;2024-02-23T21:36:15;1.9;;2.0;1.8;;;;;;
84586;SPS30;74809;48.198;16.302;2024-02-23T21:41:15;1.3;;1.4;1.2;;;;;;
84586;SPS30;74809;48.198;16.302;2024-02-23T21:46:15;1.1;;1.1;1.0;;;;;;
84586;SPS30;74809;48.198;16.302;2024-02-23T21:51:16;1.9;;1.9;1.7;;;;;;
84586;SPS30;74809;48.198;16.302;2024-02-23T21:56:16;1.0;;1.0;0.9;;;;;;
84586;SPS30;74809;48.198;16.302;2024-02-23T22:01:15;1.4;;1.5;1.4;;;;;;
84586;SPS30;74809;48.198;16.302;2024-02-23T22:06:18;1.5;;1.6;1.4;;;;;;
84586;SPS30;74809;48.198;16.302;2024-02-23T22:11:16;1.4;;1.5;1.3;;;;;;
84586;SPS30;74809;48.198;16.302;2024-02-23T22:56:16;1.4;;1.5;1.3;;;;;;
84586;SPS30;74809;48.198;16.302;2024-02-23T23:01:16;0.6;;0.6;0.5;;;;;;
84586;SPS30;74809;48.198;16.302;2024-02-23T23:06:15;1.0;;1.0;0.9;;;;;;
84586;SPS30;74809;48.198;16.302;2024-02-23T23:11:15;1.0;;1.0;0.9;;;;;;
84586;SPS30;74809;48.198;16.302;2024-02-23T23:16:16;0.8;;0.8;0.8;;;;;;
84586;SPS30;74809;48.198;16.302;2024-02-23T23:21:15;0.9;;0.9;0.8;;;;;;
84586;SPS30;74809;48.198;16.302;2024-02-23T23:26:16;0.6;;0.6;0.5;;;;;;
